Time;durP1;ratioP1;P1;durP2;ratioP2;P2;SDS_P1;SDS_P2;PMS_P1;PMS_P2;Temp;Humidity;BMP_temperature;BMP_pressure;BME280_temperature;BME280_humidity;BME280_pressure;Samples;Min_cycle;Max_cycle;Signal;HPM_P1;HPM_P2
2023/02/17 00:00:30;;;;;;;0.00;0.00;;;;;;;14.53;69.79;100798.63;7361473;19;20010;-58
2023/02/17 00:02:56;;;;;;;0.10;0.10;;;;;;;14.53;69.93;100773.19;7350071;19;20029;-58
2023/02/17 00:12:05;;;;;;;0.00;0.00;;;;;;;14.55;70.05;100775.78;7255583;19;2004369;-58
2023/02/17 00:14:31;;;;;;;0.00;0.00;;;;;;;14.49;70.25;100762.84;7359501;19;20018;-57
2023/02/17 00:16:56;;;;;;;0.05;0.05;;;;;;;14.43;69.93;100770.94;7360245;19;20026;-58
2023/02/17 00:19:25;;;;;;;0.00;0.00;;;;;;;14.51;70.14;100777.66;7357870;19;20010;-58
2023/02/17 00:21:59;;;;;;;0.10;0.10;;;;;;;14.37;70.08;100726.50;7357894;19;20834;-57
2023/02/17 00:24:27;;;;;;;0.00;0.00;;;;;;;14.51;70.11;100754.00;7353229;19;20739;-58
2023/02/17 00:26:52;;;;;;;0.00;0.00;;;;;;;14.53;69.96;100748.69;7357633;19;20502;-57
2023/02/17 00:29:17;;;;;;;0.10;0.10;;;;;;;14.49;70.13;100747.09;7351516;19;20078;-58
2023/02/17 00:31:44;;;;;;;0.00;0.00;;;;;;;14.32;69.73;100716.19;7356998;19;20021;-57
2023/02/17 00:34:09;;;;;;;0.00;0.00;;;;;;;14.54;69.78;100755.66;7355880;19;20019;-57
2023/02/17 00:36:36;;;;;;;0.00;0.00;;;;;;;14.51;69.80;100742.66;7358812;19;20014;-58
2023/02/17 00:39:02;;;;;;;0.10;0.10;;;;;;;14.57;70.02;100773.94;7353655;19;20510;-58
2023/02/17 00:41:28;;;;;;;0.10;0.10;;;;;;;14.58;69.94;100764.28;7357862;19;20550;-58
2023/02/17 00:43:53;;;;;;;0.10;0.10;;;;;;;14.49;70.12;100733.94;7358628;19;20022;-57
2023/02/17 00:46:20;;;;;;;0.10;0.10;;;;;;;14.62;69.52;100755.38;7356291;19;20097;-57
2023/02/17 00:48:46;;;;;;;0.00;0.00;;;;;;;14.60;69.69;100760.69;7359880;19;20021;-57
2023/02/17 00:51:14;;;;;;;0.10;0.10;;;;;;;14.62;69.56;100745.72;7353130;19;20007;-57
2023/02/17 00:53:40;;;;;;;0.03;0.03;;;;;;;14.54;69.60;100732.84;7359158;19;20011;-57
2023/02/17 00:56:06;;;;;;;0.10;0.10;;;;;;;14.66;69.91;100763.09;7351626;19;20013;-57
2023/02/17 00:58:32;;;;;;;0.10;0.10;;;;;;;14.62;69.90;100744.84;7359847;19;20070;-58
2023/02/17 01:00:58;;;;;;;0.10;0.10;;;;;;;14.53;69.43;100743.44;7352268;19;20010;-58
2023/02/17 01:03:24;;;;;;;0.05;0.05;;;;;;;14.65;69.42;100740.34;7357660;19;20407;-59
2023/02/17 01:05:49;;;;;;;0.00;0.00;;;;;;;14.44;69.53;100739.34;7350970;19;20070;-57
2023/02/17 01:08:16;;;;;;;0.10;0.10;;;;;;;14.65;69.58;100740.34;7351592;19;20030;-60
2023/02/17 01:10:43;;;;;;;0.00;0.00;;;;;;;14.67;69.67;100724.50;7355797;19;20014;-57
2023/02/17 01:13:10;;;;;;;0.10;0.10;;;;;;;14.66;69.41;100757.81;7358589;19;20754;-57
2023/02/17 01:15:41;;;;;;;0.00;0.00;;;;;;;14.66;69.31;100741.19;7347834;19;20093;-57
2023/02/17 01:18:07;;;;;;;0.10;0.10;;;;;;;14.54;69.84;100703.09;7354534;19;20003;-57
2023/02/17 01:20:37;;;;;;;0.08;0.08;;;;;;;14.63;69.79;100757.94;7356665;19;22012;-58
2023/02/17 01:23:04;;;;;;;0.08;0.08;;;;;;;14.48;69.90;100698.09;7350312;19;20769;-58
2023/02/17 01:25:30;;;;;;;0.00;0.00;;;;;;;14.59;69.98;100714.28;7357931;19;20030;-57
2023/02/17 01:27:55;;;;;;;0.00;0.00;;;;;;;14.56;69.73;100724.94;7351337;19;20029;-58
2023/02/17 01:30:21;;;;;;;0.00;0.00;;;;;;;14.57;69.74;100700.34;7357435;19;20471;-58
2023/02/17 01:32:46;;;;;;;0.10;0.10;;;;;;;14.51;70.01;100726.88;7352550;19;20347;-57
2023/02/17 01:35:11;;;;;;;0.08;0.08;;;;;;;14.57;70.34;100715.28;7359095;19;20701;-58
2023/02/17 01:37:37;;;;;;;0.10;0.10;;;;;;;14.58;69.89;100765.13;7357527;19;20014;-57
2023/02/17 01:40:02;;;;;;;0.00;0.00;;;;;;;14.58;70.39;100738.84;7363790;19;20021;-57
2023/02/17 01:42:28;;;;;;;0.10;0.10;;;;;;;14.54;70.06;100726.75;7361518;19;20014;-57
2023/02/17 01:45:18;;;;;;;0.10;0.10;;;;;;;14.61;69.94;100733.50;7362768;19;20010;-57
2023/02/17 01:48:05;;;;;;;0.08;0.08;;;;;;;14.61;70.09;100744.00;7260358;19;2004442;-58
2023/02/17 01:50:39;;;;;;;0.00;0.00;;;;;;;14.62;70.06;100739.59;7361303;19;21010;-57
2023/02/17 01:53:08;;;;;;;0.00;0.00;;;;;;;14.61;70.17;100735.28;7357639;19;20014;-57
2023/02/17 01:55:36;;;;;;;0.00;0.00;;;;;;;14.63;70.00;100694.00;7356248;19;20748;-58
2023/02/17 01:58:03;;;;;;;0.10;0.10;;;;;;;14.63;70.07;100715.88;7358506;19;20387;-57
2023/02/17 02:00:31;;;;;;;0.00;0.00;;;;;;;14.66;69.97;100704.41;7361191;19;20102;-58
2023/02/17 02:02:59;;;;;;;0.10;0.10;;;;;;;14.55;70.03;100696.94;7359042;19;20067;-57
2023/02/17 02:05:24;;;;;;;;;;;;;;;14.67;70.09;100712.22;7363222;19;20014;-58
2023/02/17 02:07:51;;;;;;;0.03;0.03;;;;;;;14.58;69.95;100688.91;7358066;19;20402;-58
2023/02/17 02:10:17;;;;;;;0.10;0.10;;;;;;;14.65;70.09;100724.56;7363768;19;20015;-58
2023/02/17 02:12:43;;;;;;;0.10;0.10;;;;;;;14.64;70.17;100693.06;7358695;19;20018;-58
2023/02/17 02:15:14;;;;;;;0.10;0.10;;;;;;;14.69;69.96;100702.50;7362676;19;20626;-58
2023/02/17 02:18:08;;;;;;;0.00;0.00;;;;;;;14.68;69.78;100692.03;7359018;19;20838;-57
2023/02/17 02:21:37;;;;;;;0.10;0.10;;;;;;;14.70;70.18;100654.28;7261762;19;2004331;-57
2023/02/17 02:24:05;;;;;;;0.00;0.00;;;;;;;14.66;70.04;100672.88;7151985;19;2004522;-59
2023/02/17 02:26:49;;;;;;;0.00;0.00;;;;;;;14.66;69.83;100671.09;7355008;19;20039;-57
2023/02/17 02:29:29;;;;;;;0.05;0.05;;;;;;;14.68;69.78;100702.56;7362578;19;20020;-58
2023/02/17 02:32:32;;;;;;;0.03;0.03;;;;;;;14.71;70.14;100682.28;7360566;19;20002;-58
2023/02/17 02:35:14;;;;;;;0.10;0.10;;;;;;;14.47;69.80;100609.63;7257421;19;2004517;-57
2023/02/17 02:37:48;;;;;;;0.00;0.00;;;;;;;14.71;69.75;100649.88;7360327;19;20452;-57
2023/02/17 02:40:18;;;;;;;0.05;0.05;;;;;;;14.71;69.82;100660.41;7361632;19;20466;-57
2023/02/17 02:42:44;;;;;;;0.10;0.10;;;;;;;14.72;70.01;100626.16;7358183;19;20772;-58
2023/02/17 02:45:11;;;;;;;0.00;0.00;;;;;;;14.63;70.14;100625.66;7361807;19;20003;-57
2023/02/17 02:47:44;;;;;;;0.00;0.00;;;;;;;14.75;69.73;100639.19;7359598;19;20073;-58
2023/02/17 02:50:15;;;;;;;0.00;0.00;;;;;;;14.65;69.94;100616.81;7360492;19;19999;-57
2023/02/17 02:53:11;;;;;;;0.10;0.10;;;;;;;14.76;69.76;100648.78;7362849;19;20006;-57
2023/02/17 02:56:00;;;;;;;0.10;0.10;;;;;;;14.77;69.48;100634.69;7260098;19;2004415;-57
2023/02/17 02:58:41;;;;;;;0.00;0.00;;;;;;;14.78;69.86;100625.03;7247661;19;2004297;-57
2023/02/17 03:01:36;;;;;;;0.00;0.00;;;;;;;14.81;69.71;100624.94;7358784;19;20610;-57
2023/02/17 03:04:15;;;;;;;0.08;0.08;;;;;;;14.79;69.82;100653.03;7256470;19;2004565;-57
2023/02/17 03:06:51;;;;;;;0.10;0.10;;;;;;;14.82;69.69;100636.28;7358893;19;20017;-58
2023/02/17 03:09:21;;;;;;;0.10;0.10;;;;;;;14.81;69.40;100655.63;7358201;19;20019;-58
2023/02/17 03:11:48;;;;;;;0.00;0.00;;;;;;;14.79;69.62;100638.13;7352019;19;20740;-57
2023/02/17 03:14:18;;;;;;;0.10;0.10;;;;;;;14.69;69.61;100604.38;7360760;19;20006;-57
2023/02/17 03:16:45;;;;;;;0.03;0.03;;;;;;;14.65;69.74;100585.28;7348664;19;20463;-57
2023/02/17 03:19:12;;;;;;;0.00;0.00;;;;;;;14.77;69.40;100613.66;7361075;19;20018;-58
2023/02/17 03:21:47;;;;;;;0.00;0.00;;;;;;;14.85;69.74;100615.13;7359782;19;20017;-57
2023/02/17 03:24:13;;;;;;;0.10;0.10;;;;;;;14.83;69.83;100601.19;7358901;19;20749;-58
2023/02/17 03:26:38;;;;;;;0.00;0.00;;;;;;;14.83;69.35;100590.69;7360696;19;20026;-58
2023/02/17 03:29:04;;;;;;;0.10;0.10;;;;;;;14.84;69.76;100618.66;7354091;19;20633;-57
2023/02/17 03:31:30;;;;;;;0.10;0.10;;;;;;;14.87;69.41;100600.16;7355680;19;20006;-58
2023/02/17 03:33:55;;;;;;;0.00;0.00;;;;;;;14.84;69.33;100637.06;7358514;19;20010;-58
2023/02/17 03:36:21;;;;;;;0.10;0.10;;;;;;;14.84;69.56;100637.06;7359007;19;20029;-58
2023/02/17 03:38:46;;;;;;;0.00;0.00;;;;;;;14.46;69.83;100579.03;7355461;19;20006;-57
2023/02/17 03:41:12;;;;;;;0.00;0.00;;;;;;;14.84;69.92;100629.19;7359805;19;20027;-58
2023/02/17 03:43:37;;;;;;;0.10;0.10;;;;;;;14.84;70.00;100639.69;7360116;19;20006;-57
2023/02/17 03:46:03;;;;;;;0.03;0.03;;;;;;;14.70;69.67;100627.13;7353763;19;20036;-57
2023/02/17 03:48:28;;;;;;;0.10;0.10;;;;;;;14.85;69.86;100646.66;7357740;19;20010;-57
2023/02/17 03:50:54;;;;;;;0.10;0.10;;;;;;;14.84;70.00;100634.44;7355982;19;20014;-58
2023/02/17 03:53:19;;;;;;;0.10;0.10;;;;;;;14.84;70.54;100660.72;7348856;19;20025;-57
2023/02/17 03:55:44;;;;;;;0.05;0.05;;;;;;;14.81;70.63;100650.38;7359200;19;20034;-58
2023/02/17 03:58:10;;;;;;;0.00;0.00;;;;;;;14.76;70.68;100645.28;7357859;19;20018;-57
2023/02/17 04:00:36;;;;;;;0.10;0.10;;;;;;;14.74;70.76;100661.09;7354967;19;20753;-57
2023/02/17 04:03:01;;;;;;;0.00;0.00;;;;;;;14.70;70.92;100670.06;7357971;19;20010;-58
2023/02/17 04:05:27;;;;;;;0.00;0.00;;;;;;;14.69;70.85;100662.22;7337015;19;20010;-57
2023/02/17 04:07:52;;;;;;;0.10;0.10;;;;;;;14.66;71.40;100700.00;7357144;19;20030;-58
2023/02/17 04:10:17;;;;;;;0.10;0.10;;;;;;;14.60;71.71;100700.25;7358235;19;20010;-58
2023/02/17 04:12:43;;;;;;;0.10;0.10;;;;;;;14.58;71.62;100675.78;7358789;19;20681;-57
2023/02/17 04:15:08;;;;;;;0.10;0.10;;;;;;;14.46;71.75;100660.47;7360110;19;20011;-57
2023/02/17 04:17:37;;;;;;;0.00;0.00;;;;;;;14.45;72.01;100685.06;7355315;19;20014;-59
2023/02/17 04:20:04;;;;;;;0.10;0.10;;;;;;;14.52;72.37;100697.06;7353043;19;20021;-57
2023/02/17 04:22:30;;;;;;;0.10;0.10;;;;;;;14.49;72.39;100697.16;7342988;19;20006;-58
2023/02/17 04:24:55;;;;;;;0.00;0.00;;;;;;;14.44;72.63;100707.81;7360066;19;20010;-58
2023/02/17 04:27:21;;;;;;;0.00;0.00;;;;;;;14.44;72.44;100735.84;7357515;19;20013;-57
2023/02/17 04:29:46;;;;;;;0.00;0.00;;;;;;;14.41;72.62;100699.22;7359079;19;20007;-57
2023/02/17 04:32:12;;;;;;;0.10;0.10;;;;;;;14.37;72.75;100702.88;7349430;19;20120;-57
2023/02/17 04:34:37;;;;;;;0.00;0.00;;;;;;;14.31;73.40;100687.34;7359675;19;20768;-58
2023/02/17 04:37:02;;;;;;;0.10;0.10;;;;;;;14.28;73.66;100704.06;7353852;19;20010;-58
2023/02/17 04:39:28;;;;;;;0.00;0.00;;;;;;;14.27;73.28;100715.50;7359345;19;20006;-58
2023/02/17 04:41:53;;;;;;;0.10;0.10;;;;;;;14.24;73.86;100727.00;7357278;19;20557;-57
2023/02/17 04:44:19;;;;;;;0.00;0.00;;;;;;;14.22;73.64;100697.28;7355996;19;20101;-58
2023/02/17 04:46:44;;;;;;;0.00;0.00;;;;;;;14.16;74.06;100722.91;7357848;19;20012;-58
2023/02/17 04:49:09;;;;;;;0.10;0.10;;;;;;;14.18;73.95;100723.72;7358187;19;20009;-58
2023/02/17 04:51:35;;;;;;;0.10;0.10;;;;;;;14.15;74.09;100708.94;7355580;19;20030;-58
2023/02/17 04:54:00;;;;;;;0.00;0.00;;;;;;;14.15;74.30;100661.66;7356747;19;20013;-57
2023/02/17 04:56:26;;;;;;;0.00;0.00;;;;;;;14.12;74.86;100685.41;7354095;19;20018;-57
2023/02/17 04:58:51;;;;;;;0.00;0.00;;;;;;;14.13;74.76;100712.53;7352507;19;20407;-58
2023/02/17 05:01:17;;;;;;;0.00;0.00;;;;;;;14.06;74.92;100713.69;7357472;19;20010;-58
2023/02/17 05:03:42;;;;;;;0.10;0.10;;;;;;;14.03;75.12;100699.72;7359504;19;20035;-58
2023/02/17 05:06:07;;;;;;;0.10;0.10;;;;;;;14.04;75.26;100732.13;7357114;19;20014;-57
2023/02/17 05:08:33;;;;;;;0.00;0.00;;;;;;;14.01;75.42;100713.84;7357489;19;20762;-58
2023/02/17 05:10:58;;;;;;;0.00;0.00;;;;;;;13.99;75.23;100715.69;7356492;19;20006;-58
2023/02/17 05:13:24;;;;;;;0.00;0.00;;;;;;;14.00;75.51;100725.25;7354930;19;20011;-58
2023/02/17 05:15:49;;;;;;;0.00;0.00;;;;;;;14.00;75.15;100756.78;7357942;19;20042;-57
2023/02/17 05:18:15;;;;;;;0.10;0.10;;;;;;;13.99;75.56;100724.41;7355072;19;20018;-57
2023/02/17 05:20:41;;;;;;;0.00;0.00;;;;;;;13.98;75.36;100737.56;7357407;19;20058;-58
2023/02/17 05:23:06;;;;;;;0.00;0.00;;;;;;;13.98;75.60;100737.56;7355992;19;20026;-58
2023/02/17 05:25:31;;;;;;;0.10;0.10;;;;;;;13.98;75.48;100742.81;7352096;19;20010;-58
2023/02/17 05:27:57;;;;;;;0.00;0.00;;;;;;;14.01;75.41;100742.72;7357608;19;20014;-58
2023/02/17 05:30:22;;;;;;;0.10;0.10;;;;;;;14.00;75.29;100747.13;7355991;19;20018;-58
2023/02/17 05:32:48;;;;;;;0.10;0.10;;;;;;;13.98;75.37;100740.19;7353755;19;20581;-58
2023/02/17 05:35:13;;;;;;;0.03;0.03;;;;;;;13.85;75.25;100731.06;7354128;19;20015;-58
2023/02/17 05:37:39;;;;;;;0.10;0.10;;;;;;;13.97;75.30;100751.63;7355229;19;20010;-58
2023/02/17 05:40:05;;;;;;;0.10;0.10;;;;;;;13.96;75.54;100744.66;7355734;19;20024;-57
2023/02/17 05:42:30;;;;;;;0.00;0.00;;;;;;;13.95;75.19;100743.81;7354278;19;20014;-58
2023/02/17 05:44:56;;;;;;;0.10;0.10;;;;;;;13.95;75.35;100748.19;7355056;19;20024;-58
2023/02/17 05:47:22;;;;;;;0.00;0.00;;;;;;;13.95;75.43;100759.56;7355337;19;20007;-58
2023/02/17 05:49:48;;;;;;;0.10;0.10;;;;;;;13.93;74.89;100757.88;7354879;19;20324;-58
2023/02/17 05:52:13;;;;;;;0.00;0.00;;;;;;;13.94;74.86;100751.75;7351493;19;21555;-58
2023/02/17 05:54:39;;;;;;;0.00;0.00;;;;;;;13.95;74.99;100756.94;7354712;19;20767;-58
2023/02/17 05:57:04;;;;;;;0.03;0.03;;;;;;;13.95;74.49;100753.44;7351342;19;21076;-58
2023/02/17 05:59:29;;;;;;;0.00;0.00;;;;;;;13.95;74.69;100766.56;7354025;19;20018;-58
2023/02/17 06:01:55;;;;;;;0.10;0.10;;;;;;;13.79;74.39;100739.13;7356331;19;20030;-57
2023/02/17 06:04:20;;;;;;;0.00;0.00;;;;;;;13.93;73.99;100765.75;7356576;19;20035;-57
2023/02/17 06:06:46;;;;;;;0.00;0.00;;;;;;;13.92;74.11;100817.41;7353468;19;20462;-57
2023/02/17 06:09:11;;;;;;;0.00;0.00;;;;;;;13.83;73.77;100764.38;7356245;19;20005;-58
2023/02/17 06:11:37;;;;;;;0.10;0.10;;;;;;;13.89;73.56;100796.53;7349271;19;20002;-58
2023/02/17 06:14:02;;;;;;;0.10;0.10;;;;;;;13.89;73.42;100791.28;7348320;19;20006;-58
2023/02/17 06:16:27;;;;;;;0.08;0.08;;;;;;;13.89;73.87;100783.41;7354591;19;20005;-57
2023/02/17 06:18:53;;;;;;;0.05;0.05;;;;;;;13.91;73.78;100805.19;7355006;19;20019;-57
2023/02/17 06:21:18;;;;;;;0.00;0.00;;;;;;;13.90;74.00;100789.50;7353181;19;20014;-58
2023/02/17 06:23:44;;;;;;;0.10;0.10;;;;;;;13.86;73.98;100811.53;7356712;19;20331;-57
2023/02/17 06:26:09;;;;;;;0.10;0.10;;;;;;;13.49;74.18;100752.44;7357591;19;19998;-57
2023/02/17 06:28:34;;;;;;;0.10;0.10;;;;;;;13.82;74.46;100821.25;7360401;19;20006;-58
2023/02/17 06:31:00;;;;;;;0.00;0.00;;;;;;;13.81;73.91;100821.31;7362008;19;20006;-57
2023/02/17 06:33:25;;;;;;;0.00;0.00;;;;;;;13.70;73.82;100812.03;7358388;19;20010;-58
2023/02/17 06:35:51;;;;;;;0.00;0.00;;;;;;;13.71;73.84;100834.75;7360554;19;20018;-58
2023/02/17 06:38:17;;;;;;;0.08;0.08;;;;;;;13.71;73.43;100842.63;7357665;19;20006;-59
2023/02/17 06:40:43;;;;;;;0.00;0.00;;;;;;;13.68;73.45;100821.72;7362357;19;20044;-57
2023/02/17 06:43:08;;;;;;;0.00;0.00;;;;;;;13.53;72.82;100824.84;7358094;19;20022;-57
2023/02/17 06:45:33;;;;;;;0.05;0.05;;;;;;;13.62;72.61;100835.03;7361313;19;20006;-58
2023/02/17 06:47:59;;;;;;;0.00;0.00;;;;;;;13.48;72.58;100824.16;7358327;19;20021;-58
2023/02/17 06:50:24;;;;;;;0.00;0.00;;;;;;;13.54;72.69;100844.97;7358402;19;20760;-58
2023/02/17 06:52:50;;;;;;;0.00;0.00;;;;;;;13.46;72.47;100839.94;7358174;19;20043;-58
2023/02/17 06:55:15;;;;;;;0.03;0.03;;;;;;;13.49;72.39;100860.00;7359635;19;20014;-58
2023/02/17 06:57:40;;;;;;;0.00;0.00;;;;;;;13.45;72.33;100881.97;7348098;19;20389;-59
2023/02/17 07:00:07;;;;;;;0.00;0.00;;;;;;;13.40;72.54;100894.38;7358937;19;20007;-57
2023/02/17 07:02:32;;;;;;;0.00;0.00;;;;;;;13.40;72.22;100887.38;7360481;19;20023;-59
2023/02/17 07:04:57;;;;;;;0.00;0.00;;;;;;;13.35;72.45;100898.91;7359151;19;20010;-58
2023/02/17 07:07:23;;;;;;;0.00;0.00;;;;;;;13.38;72.34;100914.53;7356464;19;20530;-58
2023/02/17 07:09:48;;;;;;;0.00;0.00;;;;;;;13.37;72.07;100913.69;7359914;19;20016;-57
2023/02/17 07:12:14;;;;;;;0.00;0.00;;;;;;;13.36;71.68;100911.09;7355768;19;20014;-57
2023/02/17 07:14:39;;;;;;;0.10;0.10;;;;;;;13.32;71.80;100930.47;7353063;19;20784;-58
2023/02/17 07:17:05;;;;;;;0.08;0.08;;;;;;;13.31;71.86;100944.50;7360002;19;20014;-57
2023/02/17 07:19:30;;;;;;;0.00;0.00;;;;;;;13.33;71.55;100945.28;7354430;19;20038;-60
2023/02/17 07:21:55;;;;;;;0.00;0.00;;;;;;;13.19;71.63;100925.56;7356591;19;20093;-57
2023/02/17 07:24:21;;;;;;;0.00;0.00;;;;;;;13.30;71.29;100958.50;7356862;19;20658;-58
2023/02/17 07:26:47;;;;;;;0.00;0.00;;;;;;;13.28;71.43;100970.78;7357837;19;20010;-58
2023/02/17 07:29:13;;;;;;;0.10;0.10;;;;;;;13.24;70.93;100986.63;7357414;19;20026;-59
2023/02/17 07:31:38;;;;;;;0.00;0.00;;;;;;;13.23;70.90;100987.56;7359110;19;20376;-59
2023/02/17 07:34:04;;;;;;;0.00;0.00;;;;;;;13.22;71.34;100993.66;7348418;19;20026;-57
2023/02/17 07:36:30;;;;;;;0.00;0.00;;;;;;;13.22;70.72;100996.28;7356659;19;20613;-57
2023/02/17 07:38:55;;;;;;;0.03;0.03;;;;;;;13.23;70.90;100999.81;7356931;19;20023;-58
2023/02/17 07:41:23;;;;;;;0.10;0.10;;;;;;;13.23;70.65;101016.41;7355975;19;20364;-58
2023/02/17 07:43:52;;;;;;;;;;;;;;;13.30;71.03;101029.34;7358334;19;20490;-58
2023/02/17 07:46:17;;;;;;;0.00;0.00;;;;;;;13.28;70.76;101013.66;7357049;19;19918;-57
2023/02/17 07:48:42;;;;;;;0.10;0.10;;;;;;;13.30;70.54;101031.94;7357154;19;20075;-58
2023/02/17 07:51:11;;;;;;;0.03;0.03;;;;;;;13.32;70.93;101035.38;7352124;19;20789;-57
2023/02/17 07:53:37;;;;;;;0.10;0.10;;;;;;;13.06;70.52;101008.09;7358068;19;20019;-57
2023/02/17 07:56:04;;;;;;;0.00;0.00;;;;;;;13.32;70.35;101057.22;7355825;19;20006;-57
2023/02/17 07:58:34;;;;;;;0.00;0.00;;;;;;;13.32;70.39;101072.09;7349773;19;20847;-57
2023/02/17 08:01:07;;;;;;;0.00;0.00;;;;;;;13.33;70.60;101074.69;7356610;19;20007;-57
2023/02/17 08:03:32;;;;;;;0.10;0.10;;;;;;;13.29;70.57;101062.56;7360991;19;20700;-57
2023/02/17 08:05:58;;;;;;;0.00;0.00;;;;;;;12.95;70.65;101010.16;7357454;19;21570;-58
2023/02/17 08:13:56;;;;;;;0.00;0.00;;;;;;;13.32;70.44;101079.97;7353058;19;20712;-57
2023/02/17 08:16:21;;;;;;;0.00;0.00;;;;;;;13.33;70.45;101094.78;7356888;19;19998;-58
2023/02/17 08:18:47;;;;;;;0.00;0.00;;;;;;;13.36;70.97;101105.22;7356906;19;20010;-58
2023/02/17 08:21:12;;;;;;;0.00;0.00;;;;;;;13.34;70.91;101092.16;7354776;19;20011;-57
2023/02/17 08:23:37;;;;;;;0.10;0.10;;;;;;;13.34;70.66;101101.78;7356658;19;20013;-58
2023/02/17 08:26:03;;;;;;;0.00;0.00;;;;;;;13.40;70.83;101118.22;7355715;19;20006;-58
2023/02/17 08:28:29;;;;;;;0.00;0.00;;;;;;;13.29;70.59;101109.78;7355312;19;20010;-57
2023/02/17 08:30:54;;;;;;;0.00;0.00;;;;;;;13.41;70.54;101124.31;7351777;19;20047;-58
2023/02/17 08:33:20;;;;;;;0.00;0.00;;;;;;;13.45;70.45;101131.19;7354454;19;20480;-58
2023/02/17 08:35:46;;;;;;;0.10;0.10;;;;;;;13.42;70.22;101126.03;7337759;19;21673;-57
2023/02/17 08:38:11;;;;;;;0.00;0.00;;;;;;;13.41;70.29;101137.44;7350171;19;20017;-57
2023/02/17 08:40:37;;;;;;;0.10;0.10;;;;;;;13.47;70.30;101135.47;7338051;19;20015;-58
2023/02/17 08:43:02;;;;;;;0.10;0.10;;;;;;;13.46;70.01;101138.16;7346490;19;20023;-57
2023/02/17 08:45:29;;;;;;;0.00;0.00;;;;;;;13.50;69.95;101140.66;7345228;19;20013;-58
2023/02/17 08:47:54;;;;;;;0.00;0.00;;;;;;;13.48;70.06;101149.47;7330333;19;20019;-58
2023/02/17 08:50:20;;;;;;;0.10;0.10;;;;;;;13.50;69.53;101172.16;7352490;19;20019;-58
2023/02/17 08:52:46;;;;;;;0.10;0.10;;;;;;;13.49;69.80;101172.19;7351219;19;20476;-58
2023/02/17 08:55:12;;;;;;;0.10;0.10;;;;;;;13.51;69.51;101173.00;7354006;19;20011;-57
2023/02/17 08:57:38;;;;;;;0.00;0.00;;;;;;;13.52;69.45;101187.84;7345062;19;20010;-57
2023/02/17 09:00:07;;;;;;;0.05;0.05;;;;;;;13.57;69.73;101192.97;7347299;19;20760;-57
2023/02/17 09:02:33;;;;;;;0.00;0.00;;;;;;;13.58;69.83;101206.03;7349468;19;20598;-57
2023/02/17 09:04:58;;;;;;;0.03;0.03;;;;;;;13.47;69.49;101181.84;7355277;19;20010;-58
2023/02/17 09:07:23;;;;;;;0.10;0.10;;;;;;;13.62;69.57;101212.94;7354618;19;20015;-58
2023/02/17 09:09:49;;;;;;;0.00;0.00;;;;;;;13.62;68.94;101212.94;7354896;19;20014;-58
2023/02/17 09:12:14;;;;;;;0.10;0.10;;;;;;;13.64;68.74;101220.78;7354193;19;20010;-57
2023/02/17 09:14:40;;;;;;;0.10;0.10;;;;;;;13.64;68.76;101221.63;7353590;19;20010;-58
2023/02/17 09:17:05;;;;;;;0.00;0.00;;;;;;;13.31;68.66;101168.28;7354780;19;20006;-58
2023/02/17 09:19:30;;;;;;;0.00;0.00;;;;;;;13.66;68.66;101242.59;7349939;19;20017;-58
2023/02/17 09:21:56;;;;;;;0.10;0.10;;;;;;;13.65;68.77;101241.72;7352334;19;20006;-57
2023/02/17 09:24:21;;;;;;;0.00;0.00;;;;;;;13.61;69.08;101252.34;7353674;19;20006;-58
2023/02/17 09:26:47;;;;;;;0.10;0.10;;;;;;;13.74;69.29;101259.84;7354917;19;20007;-58
2023/02/17 09:29:12;;;;;;;0.10;0.10;;;;;;;13.82;69.35;101248.28;7351272;19;21465;-57
2023/02/17 09:31:38;;;;;;;0.00;0.00;;;;;;;13.93;68.98;101248.84;7351457;19;20015;-57
2023/02/17 09:34:04;;;;;;;0.00;0.00;;;;;;;13.98;69.12;101247.81;7350709;19;20014;-58
2023/02/17 09:36:32;;;;;;;0.00;0.00;;;;;;;14.18;68.54;101276.13;7351967;19;20685;-58
2023/02/17 09:38:58;;;;;;;0.00;0.00;;;;;;;14.13;68.63;101259.63;7352948;19;20094;-57
2023/02/17 09:41:52;;;;;;;0.03;0.03;;;;;;;14.41;68.60;101287.75;7329515;19;20003;-58
2023/02/17 09:44:24;;;;;;;0.00;0.00;;;;;;;14.51;68.00;101297.13;7251401;19;2004456;-57
2023/02/17 09:47:04;;;;;;;0.00;0.00;;;;;;;14.61;68.02;101310.84;7354823;19;20005;-57
2023/02/17 09:49:36;;;;;;;0.10;0.10;;;;;;;14.51;67.49;101284.84;7346306;19;20018;-57
2023/02/17 09:52:04;;;;;;;0.00;0.00;;;;;;;14.65;67.28;101318.63;7353743;19;20015;-57
2023/02/17 09:54:37;;;;;;;0.00;0.00;;;;;;;14.69;67.27;101333.38;7352158;19;20011;-58
2023/02/17 09:57:07;;;;;;;0.05;0.05;;;;;;;14.65;66.99;101334.38;7352084;19;20027;-58
2023/02/17 09:59:39;;;;;;;0.00;0.00;;;;;;;14.67;66.92;101337.81;7357624;19;20558;-58
2023/02/17 10:02:30;;;;;;;0.00;0.00;;;;;;;14.66;67.21;101346.63;7363224;19;20353;-58
2023/02/17 10:04:59;;;;;;;0.00;0.00;;;;;;;14.63;67.42;101361.59;7256473;19;2004590;-58
2023/02/17 10:07:28;;;;;;;0.10;0.10;;;;;;;14.61;67.22;101359.03;7363808;19;20901;-58
2023/02/17 10:10:09;;;;;;;0.00;0.00;;;;;;;14.61;67.71;101361.66;7361189;19;20725;-58
2023/02/17 10:12:40;;;;;;;0.10;0.10;;;;;;;14.64;67.47;101373.84;7360704;19;20011;-58
2023/02/17 10:15:16;;;;;;;0.10;0.10;;;;;;;14.60;67.32;101378.34;7349793;19;20027;-58
2023/02/17 10:18:08;;;;;;;0.00;0.00;;;;;;;14.59;67.00;101387.09;7353246;19;20211;-58
2023/02/17 10:20:58;;;;;;;0.10;0.10;;;;;;;14.54;67.11;101392.50;7257249;19;2004516;-57
2023/02/17 10:23:26;;;;;;;0.10;0.10;;;;;;;14.47;67.49;101398.84;7256234;19;2004457;-57
2023/02/17 10:26:28;;;;;;;0.10;0.10;;;;;;;14.48;67.64;101390.03;7358652;19;20006;-58
2023/02/17 10:29:13;;;;;;;0.00;0.00;;;;;;;14.42;67.77;101389.31;7249568;19;2004247;-58
2023/02/17 10:31:49;;;;;;;0.00;0.00;;;;;;;14.42;67.54;101407.72;7360000;19;20014;-58
2023/02/17 10:34:33;;;;;;;0.10;0.10;;;;;;;14.42;67.46;101415.59;7353778;19;20724;-58
2023/02/17 10:37:01;;;;;;;0.00;0.00;;;;;;;14.26;68.01;101397.63;7362577;19;20077;-58
2023/02/17 10:39:41;;;;;;;0.00;0.00;;;;;;;14.37;67.80;101410.47;7360250;19;20018;-58
2023/02/17 10:42:19;;;;;;;0.10;0.10;;;;;;;14.34;68.14;101418.41;7362114;19;20023;-57
2023/02/17 10:44:44;;;;;;;0.10;0.10;;;;;;;14.27;68.81;101428.25;7352071;19;20006;-58
2023/02/17 10:47:10;;;;;;;0.00;0.00;;;;;;;14.18;68.96;101420.59;7350675;19;20600;-58
2023/02/17 10:49:41;;;;;;;0.08;0.08;;;;;;;14.20;69.28;101429.31;7355797;19;20014;-58
2023/02/17 10:52:16;;;;;;;0.10;0.10;;;;;;;14.08;68.92;101413.00;7352231;19;19998;-58
2023/02/17 10:54:49;;;;;;;0.08;0.08;;;;;;;14.14;69.19;101432.13;7349812;19;20010;-58
2023/02/17 10:57:18;;;;;;;0.10;0.10;;;;;;;14.09;69.59;101433.09;7353137;19;20006;-57
2023/02/17 10:59:45;;;;;;;0.10;0.10;;;;;;;14.05;69.40;101442.84;7355813;19;20019;-58
2023/02/17 11:02:14;;;;;;;0.10;0.10;;;;;;;14.05;69.76;101457.75;7355738;19;20011;-57
2023/02/17 11:04:41;;;;;;;0.00;0.00;;;;;;;14.01;70.03;101451.69;7358127;19;20006;-57
2023/02/17 11:07:10;;;;;;;0.00;0.00;;;;;;;14.02;69.75;101448.16;7355202;19;20074;-58
2023/02/17 11:09:43;;;;;;;0.05;0.05;;;;;;;14.00;69.61;101447.34;7352432;19;21393;-57
2023/02/17 11:12:19;;;;;;;0.00;0.00;;;;;;;13.99;69.42;101459.63;7339269;19;20455;-57
2023/02/17 11:14:48;;;;;;;0.10;0.10;;;;;;;13.98;70.08;101472.75;7350910;19;20014;-58
2023/02/17 11:17:27;;;;;;;0.00;0.00;;;;;;;13.97;70.16;101471.03;7356029;19;20011;-59
2023/02/17 11:20:17;;;;;;;0.10;0.10;;;;;;;13.99;69.82;101485.03;7342716;19;20018;-57
2023/02/17 11:22:58;;;;;;;0.10;0.10;;;;;;;13.98;69.55;101485.91;7342991;19;20010;-57
2023/02/17 11:25:26;;;;;;;0.00;0.00;;;;;;;13.93;69.70;101482.53;7358730;19;20010;-58
2023/02/17 11:27:54;;;;;;;0.00;0.00;;;;;;;13.98;69.39;101499.03;7361187;19;20074;-57
2023/02/17 11:30:20;;;;;;;0.03;0.03;;;;;;;13.97;69.90;101505.19;7358301;19;20010;-58
2023/02/17 11:32:46;;;;;;;0.00;0.00;;;;;;;13.96;69.99;101501.69;7361262;19;20014;-58
2023/02/17 11:35:26;;;;;;;0.05;0.05;;;;;;;14.00;69.95;101492.00;7358446;19;20435;-59
2023/02/17 11:38:00;;;;;;;0.00;0.00;;;;;;;14.00;70.27;101497.25;7358767;19;20006;-57
2023/02/17 11:40:28;;;;;;;0.10;0.10;;;;;;;14.06;70.25;101494.47;7349513;19;20023;-59
2023/02/17 11:42:56;;;;;;;0.10;0.10;;;;;;;14.16;70.33;101501.22;7345227;19;20624;-58